메인 페이지
METAR-TAF:

METAR-TAF

공항 :

광주광역, 대한민국

무안국제공항

위도: 34-59-29N, 경도: 126-22-58E, 고도: 16m

현재 날씨관측

예보는 27분 전, 11:00시(UTC)에 발표되었습니다.
북북서6kt서북서풍과 풍을 오가는
온도 3°C
습도 65%
기압 1023 hPa
시정 10km 이상
고도 3000ft 상공 구름 조금
고도 15000ft 상공 구름 많음

METAR: RKJB 201100Z 33006KT 300V360 9999 FEW030 BKN150 03/M03 Q1023 NOSIG

시각: 20:27 (11:27 UTC)

예보

예보는 6 시간 27분 전, 05:00시(UTC)에 발표되었습니다.
예보 대상 시간: 20일 06시부터 21일 12시까지 (UTC)
북북서10kt
시정: 6000m
고도 3000ft 상공 구름 조금
고도 18000ft 상공 구름 많음
일시적
20일 06시부터 20일 12시까지 (UTC)
시정: 4200m
박무
전환 중
21일 02시부터 21일 03시까지 (UTC)
15kt, 순간 최대 풍속 25kt
전환 중
21일 09시부터 21일 10시까지 (UTC)
7kt

TAF: RKJB 200500Z 2006/2112 34010KT 6000 FEW030 BKN180 TNM02/2021Z TX06/2106Z TEMPO 2006/2012 4200 BR BECMG 2102/2103 01015G25KT BECMG 2109/2110 01007KT

4,000개 이상의 공항 관측 자료 및 예보 (METAR 및 TAF 보고).

지도상에서 검색 가능한 기상관측소가 노란 점과 빨간 점으로 표시되어 있습니다.

기상관측소 명을 보려면 표시 위로 마우스를 이동하세요.

날씨 관측과 예보를 보려면 클릭하세요.

지도 변경 : 확대하려면 엑스 표시가 있는 녹색 버튼, 축소하려면 빼기 표시가 있는 녹색 버튼, 다음 페이지의 지도를 보려면 녹색 화살표를 클릭하세요.


METAR-TAF: